Gearhart, Oregon
Current Conditions -  °F | °C
As of 6:55 AM on Thursday 23 Oct 2014 (Local Time) from KAST Reporting Station
Light Rain Light Rain  
Wind Chill: 51°   Ceiling: 7000
Heat Index: 51°   Visibility: 10mi
Dew Point: 50°   Wind: 8mph
Humidity: 96%   Direction: 150°SSE
Pressure: 29.73"   Gusts: NA
Location:  45.8905°N, 123.667°W
Report Text: KAST 231355Z AUTO 15007KT 10SM -RA OVC070 11/10 A2973 RMK AO2 RAB1256 SLP067 P0006 T01060100
Loading
Personal Weather Stations






























Interactive Weather Map
Tropical Storm Tracking
New forecast layout! Learn more

10-Day Weather Forecast

Advertisements
Track Severe Weather on mobile